sensor_id;sensor_type;location;lat;lon;timestamp;temperature;humidity
21676;DHT22;10999;51.332;9.458;2023-08-21T00:01:38;21.40;83.50
21676;DHT22;10999;51.332;9.458;2023-08-21T00:04:05;21.40;83.50
21676;DHT22;10999;51.332;9.458;2023-08-21T00:06:32;21.40;84.40
21676;DHT22;10999;51.332;9.458;2023-08-21T00:09:00;21.30;83.70
21676;DHT22;10999;51.332;9.458;2023-08-21T00:11:27;21.30;84.00
21676;DHT22;10999;51.332;9.458;2023-08-21T00:13:54;21.30;84.40
21676;DHT22;10999;51.332;9.458;2023-08-21T00:16:21;21.30;83.50
21676;DHT22;10999;51.332;9.458;2023-08-21T00:18:48;21.30;82.80
21676;DHT22;10999;51.332;9.458;2023-08-21T00:21:15;21.30;82.90
21676;DHT22;10999;51.332;9.458;2023-08-21T00:23:42;21.30;83.10
21676;DHT22;10999;51.332;9.458;2023-08-21T00:26:08;21.20;83.10
21676;DHT22;10999;51.332;9.458;2023-08-21T00:28:35;21.30;83.20
21676;DHT22;10999;51.332;9.458;2023-08-21T00:31:03;21.30;83.20
21676;DHT22;10999;51.332;9.458;2023-08-21T00:33:33;21.20;83.70
21676;DHT22;10999;51.332;9.458;2023-08-21T00:36:00;21.10;84.10
21676;DHT22;10999;51.332;9.458;2023-08-21T00:38:27;21.00;84.10
21676;DHT22;10999;51.332;9.458;2023-08-21T00:40:53;21.00;84.60
21676;DHT22;10999;51.332;9.458;2023-08-21T00:43:20;21.00;84.80
21676;DHT22;10999;51.332;9.458;2023-08-21T00:45:49;20.90;85.40
21676;DHT22;10999;51.332;9.458;2023-08-21T00:48:17;20.90;85.40
21676;DHT22;10999;51.332;9.458;2023-08-21T00:50:45;20.80;85.30
21676;DHT22;10999;51.332;9.458;2023-08-21T00:53:12;20.80;85.80
21676;DHT22;10999;51.332;9.458;2023-08-21T00:55:40;20.80;85.90
21676;DHT22;10999;51.332;9.458;2023-08-21T00:58:09;20.80;86.10
21676;DHT22;10999;51.332;9.458;2023-08-21T01:00:37;20.80;86.20
21676;DHT22;10999;51.332;9.458;2023-08-21T01:03:04;20.80;86.20
21676;DHT22;10999;51.332;9.458;2023-08-21T01:05:31;20.70;86.90
21676;DHT22;10999;51.332;9.458;2023-08-21T01:08:03;20.70;87.70
21676;DHT22;10999;51.332;9.458;2023-08-21T01:13:24;20.60;87.60
21676;DHT22;10999;51.332;9.458;2023-08-21T01:15:54;20.70;87.90
21676;DHT22;10999;51.332;9.458;2023-08-21T01:18:22;20.70;88.10
21676;DHT22;10999;51.332;9.458;2023-08-21T01:20:51;20.70;87.90
21676;DHT22;10999;51.332;9.458;2023-08-21T01:23:34;20.70;87.90
21676;DHT22;10999;51.332;9.458;2023-08-21T01:26:02;20.70;88.20
21676;DHT22;10999;51.332;9.458;2023-08-21T01:28:30;20.70;88.50
21676;DHT22;10999;51.332;9.458;2023-08-21T01:33:52;20.80;87.50
21676;DHT22;10999;51.332;9.458;2023-08-21T01:36:20;20.80;87.50
21676;DHT22;10999;51.332;9.458;2023-08-21T01:38:48;20.80;87.40
21676;DHT22;10999;51.332;9.458;2023-08-21T01:41:15;20.80;87.20
21676;DHT22;10999;51.332;9.458;2023-08-21T01:43:41;20.90;87.40
21676;DHT22;10999;51.332;9.458;2023-08-21T01:46:09;20.80;87.50
21676;DHT22;10999;51.332;9.458;2023-08-21T01:48:35;20.90;88.10
21676;DHT22;10999;51.332;9.458;2023-08-21T01:51:03;20.90;87.20
21676;DHT22;10999;51.332;9.458;2023-08-21T01:53:29;20.90;87.50
21676;DHT22;10999;51.332;9.458;2023-08-21T01:55:56;20.90;87.70
21676;DHT22;10999;51.332;9.458;2023-08-21T01:58:25;20.90;87.70
21676;DHT22;10999;51.332;9.458;2023-08-21T02:00:52;20.90;87.40
21676;DHT22;10999;51.332;9.458;2023-08-21T02:03:19;20.90;87.40
21676;DHT22;10999;51.332;9.458;2023-08-21T02:05:46;20.80;87.50
21676;DHT22;10999;51.332;9.458;2023-08-21T02:08:13;20.80;88.20
21676;DHT22;10999;51.332;9.458;2023-08-21T02:10:53;20.80;88.40
21676;DHT22;10999;51.332;9.458;2023-08-21T02:13:19;20.80;88.60
21676;DHT22;10999;51.332;9.458;2023-08-21T02:15:46;20.70;88.80
21676;DHT22;10999;51.332;9.458;2023-08-21T02:18:13;20.70;89.10
21676;DHT22;10999;51.332;9.458;2023-08-21T02:20:40;20.60;89.20
21676;DHT22;10999;51.332;9.458;2023-08-21T02:23:07;20.60;88.80
21676;DHT22;10999;51.332;9.458;2023-08-21T02:25:34;20.60;88.70
21676;DHT22;10999;51.332;9.458;2023-08-21T02:28:01;20.50;88.60
21676;DHT22;10999;51.332;9.458;2023-08-21T02:30:30;20.50;89.00
21676;DHT22;10999;51.332;9.458;2023-08-21T02:32:58;20.40;89.30
21676;DHT22;10999;51.332;9.458;2023-08-21T02:35:25;20.40;89.50
21676;DHT22;10999;51.332;9.458;2023-08-21T02:37:52;20.40;89.80
21676;DHT22;10999;51.332;9.458;2023-08-21T02:40:18;20.40;90.00
21676;DHT22;10999;51.332;9.458;2023-08-21T02:42:45;20.30;89.90
21676;DHT22;10999;51.332;9.458;2023-08-21T02:45:12;20.30;90.00
21676;DHT22;10999;51.332;9.458;2023-08-21T02:47:39;20.40;90.00
21676;DHT22;10999;51.332;9.458;2023-08-21T02:50:08;20.40;89.80
21676;DHT22;10999;51.332;9.458;2023-08-21T02:52:35;20.30;89.80
21676;DHT22;10999;51.332;9.458;2023-08-21T02:55:04;20.30;90.30
21676;DHT22;10999;51.332;9.458;2023-08-21T02:57:31;20.30;90.00
21676;DHT22;10999;51.332;9.458;2023-08-21T02:59:58;20.20;90.60
21676;DHT22;10999;51.332;9.458;2023-08-21T03:02:25;20.30;91.30
21676;DHT22;10999;51.332;9.458;2023-08-21T03:04:51;20.10;91.70
21676;DHT22;10999;51.332;9.458;2023-08-21T03:07:18;20.10;92.90
21676;DHT22;10999;51.332;9.458;2023-08-21T03:09:46;20.10;93.90
21676;DHT22;10999;51.332;9.458;2023-08-21T03:12:13;20.00;94.30
21676;DHT22;10999;51.332;9.458;2023-08-21T03:14:40;20.00;94.50
21676;DHT22;10999;51.332;9.458;2023-08-21T03:17:08;19.90;94.90
21676;DHT22;10999;51.332;9.458;2023-08-21T03:19:34;19.90;96.00
21676;DHT22;10999;51.332;9.458;2023-08-21T03:22:01;19.80;95.50
21676;DHT22;10999;51.332;9.458;2023-08-21T03:24:28;19.80;95.80
21676;DHT22;10999;51.332;9.458;2023-08-21T03:26:55;19.70;95.80
21676;DHT22;10999;51.332;9.458;2023-08-21T03:29:24;19.70;95.90
21676;DHT22;10999;51.332;9.458;2023-08-21T03:31:53;19.70;96.10
21676;DHT22;10999;51.332;9.458;2023-08-21T03:34:21;19.60;96.20
21676;DHT22;10999;51.332;9.458;2023-08-21T03:36:48;19.50;96.20
21676;DHT22;10999;51.332;9.458;2023-08-21T03:39:15;19.50;96.60
21676;DHT22;10999;51.332;9.458;2023-08-21T03:41:42;19.40;96.90
21676;DHT22;10999;51.332;9.458;2023-08-21T03:44:08;19.40;97.30
21676;DHT22;10999;51.332;9.458;2023-08-21T03:46:35;19.30;97.40
21676;DHT22;10999;51.332;9.458;2023-08-21T03:49:02;19.20;97.50
21676;DHT22;10999;51.332;9.458;2023-08-21T03:51:29;19.20;97.50
21676;DHT22;10999;51.332;9.458;2023-08-21T03:53:55;19.20;97.50
21676;DHT22;10999;51.332;9.458;2023-08-21T03:56:22;19.10;97.60
21676;DHT22;10999;51.332;9.458;2023-08-21T03:58:50;19.10;98.00
21676;DHT22;10999;51.332;9.458;2023-08-21T04:01:16;19.00;98.00
21676;DHT22;10999;51.332;9.458;2023-08-21T04:03:43;19.00;98.30
21676;DHT22;10999;51.332;9.458;2023-08-21T04:06:10;18.90;98.30
21676;DHT22;10999;51.332;9.458;2023-08-21T04:08:37;18.90;98.30
21676;DHT22;10999;51.332;9.458;2023-08-21T04:11:05;18.90;98.30
21676;DHT22;10999;51.332;9.458;2023-08-21T04:13:32;18.90;98.10
21676;DHT22;10999;51.332;9.458;2023-08-21T04:15:59;18.80;97.70
21676;DHT22;10999;51.332;9.458;2023-08-21T04:18:26;18.80;97.70
21676;DHT22;10999;51.332;9.458;2023-08-21T04:21:07;18.80;97.60
21676;DHT22;10999;51.332;9.458;2023-08-21T04:23:35;18.70;97.60
21676;DHT22;10999;51.332;9.458;2023-08-21T04:26:03;18.70;97.60
21676;DHT22;10999;51.332;9.458;2023-08-21T04:28:30;18.70;97.70
21676;DHT22;10999;51.332;9.458;2023-08-21T04:30:58;18.60;97.60
21676;DHT22;10999;51.332;9.458;2023-08-21T04:33:25;18.60;97.60
21676;DHT22;10999;51.332;9.458;2023-08-21T04:35:52;18.50;97.60
21676;DHT22;10999;51.332;9.458;2023-08-21T04:38:19;18.50;97.70
21676;DHT22;10999;51.332;9.458;2023-08-21T04:40:45;18.50;97.80
21676;DHT22;10999;51.332;9.458;2023-08-21T04:43:12;18.50;98.00
21676;DHT22;10999;51.332;9.458;2023-08-21T04:45:48;18.50;97.90
21676;DHT22;10999;51.332;9.458;2023-08-21T04:48:16;18.40;98.10
21676;DHT22;10999;51.332;9.458;2023-08-21T04:50:43;18.40;97.90
21676;DHT22;10999;51.332;9.458;2023-08-21T04:53:09;18.50;97.90
21676;DHT22;10999;51.332;9.458;2023-08-21T04:55:36;18.50;98.50
21676;DHT22;10999;51.332;9.458;2023-08-21T04:58:03;18.50;97.80
21676;DHT22;10999;51.332;9.458;2023-08-21T05:00:30;18.50;98.00
21676;DHT22;10999;51.332;9.458;2023-08-21T05:02:57;18.60;98.30
21676;DHT22;10999;51.332;9.458;2023-08-21T05:05:24;18.60;97.80
21676;DHT22;10999;51.332;9.458;2023-08-21T05:07:52;18.70;97.70
21676;DHT22;10999;51.332;9.458;2023-08-21T05:10:19;18.80;97.60
21676;DHT22;10999;51.332;9.458;2023-08-21T05:12:46;18.80;97.50
21676;DHT22;10999;51.332;9.458;2023-08-21T05:15:13;18.80;97.50
21676;DHT22;10999;51.332;9.458;2023-08-21T05:17:41;18.90;98.10
21676;DHT22;10999;51.332;9.458;2023-08-21T05:20:08;19.00;98.20
21676;DHT22;10999;51.332;9.458;2023-08-21T05:22:35;19.00;97.90
21676;DHT22;10999;51.332;9.458;2023-08-21T05:25:02;19.10;97.70
21676;DHT22;10999;51.332;9.458;2023-08-21T05:27:29;19.10;97.30
21676;DHT22;10999;51.332;9.458;2023-08-21T05:29:56;19.20;98.00
21676;DHT22;10999;51.332;9.458;2023-08-21T05:32:23;19.30;97.30
21676;DHT22;10999;51.332;9.458;2023-08-21T05:34:49;19.40;96.80
21676;DHT22;10999;51.332;9.458;2023-08-21T05:37:16;19.50;96.70
21676;DHT22;10999;51.332;9.458;2023-08-21T05:39:43;19.60;96.70
21676;DHT22;10999;51.332;9.458;2023-08-21T05:42:10;19.70;96.60
21676;DHT22;10999;51.332;9.458;2023-08-21T05:44:37;19.80;96.30
21676;DHT22;10999;51.332;9.458;2023-08-21T05:47:04;20.00;96.10
21676;DHT22;10999;51.332;9.458;2023-08-21T05:49:31;20.10;95.90
21676;DHT22;10999;51.332;9.458;2023-08-21T05:51:57;20.10;95.70
21676;DHT22;10999;51.332;9.458;2023-08-21T05:54:25;20.20;94.30
21676;DHT22;10999;51.332;9.458;2023-08-21T05:56:52;20.20;92.40
21676;DHT22;10999;51.332;9.458;2023-08-21T05:59:32;20.20;92.10
21676;DHT22;10999;51.332;9.458;2023-08-21T06:01:59;20.30;92.10
21676;DHT22;10999;51.332;9.458;2023-08-21T06:04:26;20.20;92.50
21676;DHT22;10999;51.332;9.458;2023-08-21T06:06:54;20.30;92.80
21676;DHT22;10999;51.332;9.458;2023-08-21T06:09:22;20.30;91.60
21676;DHT22;10999;51.332;9.458;2023-08-21T06:11:48;20.40;91.90
21676;DHT22;10999;51.332;9.458;2023-08-21T06:14:15;20.50;92.10
21676;DHT22;10999;51.332;9.458;2023-08-21T06:16:42;20.70;92.20
21676;DHT22;10999;51.332;9.458;2023-08-21T06:19:11;20.70;92.10
21676;DHT22;10999;51.332;9.458;2023-08-21T06:21:38;20.90;90.40
21676;DHT22;10999;51.332;9.458;2023-08-21T06:24:05;21.00;90.50
21676;DHT22;10999;51.332;9.458;2023-08-21T06:26:32;21.00;88.90
21676;DHT22;10999;51.332;9.458;2023-08-21T06:28:59;21.20;88.60
21676;DHT22;10999;51.332;9.458;2023-08-21T06:31:25;21.20;88.20
21676;DHT22;10999;51.332;9.458;2023-08-21T06:33:52;21.40;87.30
21676;DHT22;10999;51.332;9.458;2023-08-21T06:36:19;21.40;86.00
21676;DHT22;10999;51.332;9.458;2023-08-21T06:38:46;21.50;85.50
21676;DHT22;10999;51.332;9.458;2023-08-21T06:41:12;21.60;85.50
21676;DHT22;10999;51.332;9.458;2023-08-21T06:43:39;21.80;84.90
21676;DHT22;10999;51.332;9.458;2023-08-21T06:46:11;21.90;84.70
21676;DHT22;10999;51.332;9.458;2023-08-21T06:48:39;21.90;84.40
21676;DHT22;10999;51.332;9.458;2023-08-21T06:51:07;22.20;83.90
21676;DHT22;10999;51.332;9.458;2023-08-21T06:53:34;22.20;82.60
21676;DHT22;10999;51.332;9.458;2023-08-21T06:56:01;22.40;81.70
21676;DHT22;10999;51.332;9.458;2023-08-21T06:58:28;22.40;80.80
21676;DHT22;10999;51.332;9.458;2023-08-21T07:00:55;22.50;81.80
21676;DHT22;10999;51.332;9.458;2023-08-21T07:03:23;22.70;79.80
21676;DHT22;10999;51.332;9.458;2023-08-21T07:05:59;22.90;78.30
21676;DHT22;10999;51.332;9.458;2023-08-21T07:08:27;23.00;78.00
21676;DHT22;10999;51.332;9.458;2023-08-21T07:10:53;23.10;76.10
21676;DHT22;10999;51.332;9.458;2023-08-21T07:13:20;23.20;75.20
21676;DHT22;10999;51.332;9.458;2023-08-21T07:15:47;23.20;75.60
21676;DHT22;10999;51.332;9.458;2023-08-21T07:18:14;23.30;74.90
21676;DHT22;10999;51.332;9.458;2023-08-21T07:20:41;23.40;73.50
21676;DHT22;10999;51.332;9.458;2023-08-21T07:23:08;23.60;71.40
21676;DHT22;10999;51.332;9.458;2023-08-21T07:25:34;23.70;74.70
21676;DHT22;10999;51.332;9.458;2023-08-21T07:28:01;23.60;72.60
21676;DHT22;10999;51.332;9.458;2023-08-21T07:30:28;23.70;70.00
21676;DHT22;10999;51.332;9.458;2023-08-21T07:32:55;23.60;70.50
21676;DHT22;10999;51.332;9.458;2023-08-21T07:35:22;23.40;71.80
21676;DHT22;10999;51.332;9.458;2023-08-21T07:37:49;23.30;74.50
21676;DHT22;10999;51.332;9.458;2023-08-21T07:40:15;23.20;74.40
21676;DHT22;10999;51.332;9.458;2023-08-21T07:42:42;23.10;74.70
21676;DHT22;10999;51.332;9.458;2023-08-21T07:45:09;22.90;74.30
21676;DHT22;10999;51.332;9.458;2023-08-21T07:47:37;22.90;75.70
21676;DHT22;10999;51.332;9.458;2023-08-21T07:50:05;22.70;76.40
21676;DHT22;10999;51.332;9.458;2023-08-21T07:52:33;22.70;77.40
21676;DHT22;10999;51.332;9.458;2023-08-21T07:55:00;22.80;77.00
21676;DHT22;10999;51.332;9.458;2023-08-21T07:57:28;23.10;78.30
21676;DHT22;10999;51.332;9.458;2023-08-21T07:59:55;23.30;74.30
21676;DHT22;10999;51.332;9.458;2023-08-21T08:02:23;23.30;71.30
21676;DHT22;10999;51.332;9.458;2023-08-21T08:04:57;23.50;71.20
21676;DHT22;10999;51.332;9.458;2023-08-21T08:07:24;23.80;71.50
21676;DHT22;10999;51.332;9.458;2023-08-21T08:09:52;24.00;68.20
21676;DHT22;10999;51.332;9.458;2023-08-21T08:12:19;24.20;64.10
21676;DHT22;10999;51.332;9.458;2023-08-21T08:14:45;24.50;63.80
21676;DHT22;10999;51.332;9.458;2023-08-21T08:17:13;24.70;61.40
21676;DHT22;10999;51.332;9.458;2023-08-21T08:19:40;24.80;59.80
21676;DHT22;10999;51.332;9.458;2023-08-21T08:22:06;24.90;61.10
21676;DHT22;10999;51.332;9.458;2023-08-21T08:24:33;25.00;59.00
21676;DHT22;10999;51.332;9.458;2023-08-21T08:27:01;25.20;58.10
21676;DHT22;10999;51.332;9.458;2023-08-21T08:29:28;25.30;59.50
21676;DHT22;10999;51.332;9.458;2023-08-21T08:31:56;25.40;58.80
21676;DHT22;10999;51.332;9.458;2023-08-21T08:34:23;25.40;56.00
21676;DHT22;10999;51.332;9.458;2023-08-21T08:36:49;25.50;55.20
21676;DHT22;10999;51.332;9.458;2023-08-21T08:39:16;25.60;56.50
21676;DHT22;10999;51.332;9.458;2023-08-21T08:42:05;25.70;58.20
21676;DHT22;10999;51.332;9.458;2023-08-21T08:44:35;25.70;58.00
21676;DHT22;10999;51.332;9.458;2023-08-21T08:47:03;25.70;54.40
21676;DHT22;10999;51.332;9.458;2023-08-21T08:49:30;25.80;55.70
21676;DHT22;10999;51.332;9.458;2023-08-21T08:51:58;25.80;56.80
21676;DHT22;10999;51.332;9.458;2023-08-21T08:54:27;25.90;55.30
21676;DHT22;10999;51.332;9.458;2023-08-21T08:56:54;26.00;55.70
21676;DHT22;10999;51.332;9.458;2023-08-21T08:59:21;26.00;53.60
21676;DHT22;10999;51.332;9.458;2023-08-21T09:01:48;26.10;54.40
21676;DHT22;10999;51.332;9.458;2023-08-21T09:04:15;26.20;54.70
21676;DHT22;10999;51.332;9.458;2023-08-21T09:06:42;26.30;54.40
21676;DHT22;10999;51.332;9.458;2023-08-21T09:09:09;26.50;54.80
21676;DHT22;10999;51.332;9.458;2023-08-21T09:11:43;26.70;53.90
21676;DHT22;10999;51.332;9.458;2023-08-21T09:14:10;26.90;53.40
21676;DHT22;10999;51.332;9.458;2023-08-21T09:16:41;27.10;54.50
21676;DHT22;10999;51.332;9.458;2023-08-21T09:19:23;27.20;51.60
21676;DHT22;10999;51.332;9.458;2023-08-21T09:21:50;27.30;51.60
21676;DHT22;10999;51.332;9.458;2023-08-21T09:24:17;27.20;49.90
21676;DHT22;10999;51.332;9.458;2023-08-21T09:26:44;27.20;50.00
21676;DHT22;10999;51.332;9.458;2023-08-21T09:29:11;27.20;51.30
21676;DHT22;10999;51.332;9.458;2023-08-21T09:31:38;27.20;50.80
21676;DHT22;10999;51.332;9.458;2023-08-21T09:34:06;27.20;53.00
21676;DHT22;10999;51.332;9.458;2023-08-21T09:36:34;27.20;50.80
21676;DHT22;10999;51.332;9.458;2023-08-21T09:39:01;27.20;50.40
21676;DHT22;10999;51.332;9.458;2023-08-21T09:41:28;27.30;51.30
21676;DHT22;10999;51.332;9.458;2023-08-21T09:43:59;27.40;52.30
21676;DHT22;10999;51.332;9.458;2023-08-21T09:46:30;27.40;51.80
21676;DHT22;10999;51.332;9.458;2023-08-21T09:48:57;27.40;50.60
21676;DHT22;10999;51.332;9.458;2023-08-21T09:51:26;27.50;49.50
21676;DHT22;10999;51.332;9.458;2023-08-21T09:53:54;27.40;50.20
21676;DHT22;10999;51.332;9.458;2023-08-21T09:56:22;27.50;48.20
21676;DHT22;10999;51.332;9.458;2023-08-21T09:58:50;27.50;48.70
21676;DHT22;10999;51.332;9.458;2023-08-21T10:01:20;27.60;50.40
21676;DHT22;10999;51.332;9.458;2023-08-21T10:03:48;27.70;50.90
21676;DHT22;10999;51.332;9.458;2023-08-21T10:06:18;27.70;47.60
21676;DHT22;10999;51.332;9.458;2023-08-21T10:08:52;27.80;49.30
21676;DHT22;10999;51.332;9.458;2023-08-21T10:11:20;27.80;48.60
21676;DHT22;10999;51.332;9.458;2023-08-21T10:13:48;27.90;48.70
21676;DHT22;10999;51.332;9.458;2023-08-21T10:16:18;27.80;48.00
21676;DHT22;10999;51.332;9.458;2023-08-21T10:18:46;27.80;47.90
21676;DHT22;10999;51.332;9.458;2023-08-21T10:21:16;27.90;51.10
21676;DHT22;10999;51.332;9.458;2023-08-21T10:23:47;27.80;45.60
21676;DHT22;10999;51.332;9.458;2023-08-21T10:26:16;27.70;48.10
21676;DHT22;10999;51.332;9.458;2023-08-21T10:31:31;27.80;52.10
21676;DHT22;10999;51.332;9.458;2023-08-21T10:34:00;27.80;48.10
21676;DHT22;10999;51.332;9.458;2023-08-21T10:39:34;27.80;46.60
21676;DHT22;10999;51.332;9.458;2023-08-21T10:42:10;27.90;48.00
21676;DHT22;10999;51.332;9.458;2023-08-21T10:49:52;28.00;46.20
21676;DHT22;10999;51.332;9.458;2023-08-21T10:52:36;28.00;46.40
21676;DHT22;10999;51.332;9.458;2023-08-21T10:55:03;28.00;46.70
21676;DHT22;10999;51.332;9.458;2023-08-21T10:57:33;28.00;48.00
21676;DHT22;10999;51.332;9.458;2023-08-21T11:02:38;28.10;47.10
21676;DHT22;10999;51.332;9.458;2023-08-21T11:05:06;28.10;48.30
21676;DHT22;10999;51.332;9.458;2023-08-21T11:07:45;28.10;46.80
21676;DHT22;10999;51.332;9.458;2023-08-21T11:10:23;28.00;46.20
21676;DHT22;10999;51.332;9.458;2023-08-21T11:12:55;27.80;47.60
21676;DHT22;10999;51.332;9.458;2023-08-21T11:15:27;27.60;48.30
21676;DHT22;10999;51.332;9.458;2023-08-21T11:17:59;27.50;48.60
21676;DHT22;10999;51.332;9.458;2023-08-21T11:20:34;27.40;48.40
21676;DHT22;10999;51.332;9.458;2023-08-21T11:23:03;27.20;47.90
21676;DHT22;10999;51.332;9.458;2023-08-21T11:25:34;27.00;48.40
21676;DHT22;10999;51.332;9.458;2023-08-21T11:28:00;27.00;49.20
21676;DHT22;10999;51.332;9.458;2023-08-21T11:30:31;27.20;52.50
21676;DHT22;10999;51.332;9.458;2023-08-21T11:33:09;27.50;52.80
21676;DHT22;10999;51.332;9.458;2023-08-21T11:35:37;27.60;50.20
21676;DHT22;10999;51.332;9.458;2023-08-21T11:38:04;27.70;51.30
21676;DHT22;10999;51.332;9.458;2023-08-21T11:40:35;27.80;52.20
21676;DHT22;10999;51.332;9.458;2023-08-21T11:43:03;27.90;50.80
21676;DHT22;10999;51.332;9.458;2023-08-21T11:45:31;28.10;49.20
21676;DHT22;10999;51.332;9.458;2023-08-21T11:48:11;28.10;45.50
21676;DHT22;10999;51.332;9.458;2023-08-21T11:50:39;28.20;47.00
21676;DHT22;10999;51.332;9.458;2023-08-21T11:53:05;28.00;44.30
21676;DHT22;10999;51.332;9.458;2023-08-21T11:55:34;28.20;48.30
21676;DHT22;10999;51.332;9.458;2023-08-21T11:58:01;28.30;43.50
21676;DHT22;10999;51.332;9.458;2023-08-21T12:00:29;28.40;43.90
21676;DHT22;10999;51.332;9.458;2023-08-21T12:02:59;28.50;45.70
21676;DHT22;10999;51.332;9.458;2023-08-21T12:05:28;28.60;44.30
21676;DHT22;10999;51.332;9.458;2023-08-21T12:07:55;28.80;44.40
21676;DHT22;10999;51.332;9.458;2023-08-21T12:10:27;28.70;42.90
21676;DHT22;10999;51.332;9.458;2023-08-21T12:12:54;28.40;41.50
21676;DHT22;10999;51.332;9.458;2023-08-21T12:15:21;28.30;42.70
21676;DHT22;10999;51.332;9.458;2023-08-21T12:17:48;28.10;43.00
21676;DHT22;10999;51.332;9.458;2023-08-21T12:20:15;28.00;45.50
21676;DHT22;10999;51.332;9.458;2023-08-21T12:22:42;28.10;43.40
21676;DHT22;10999;51.332;9.458;2023-08-21T12:25:09;28.20;47.30
21676;DHT22;10999;51.332;9.458;2023-08-21T12:27:39;28.40;47.50
21676;DHT22;10999;51.332;9.458;2023-08-21T12:30:07;28.50;42.80
21676;DHT22;10999;51.332;9.458;2023-08-21T12:32:34;28.60;45.50
21676;DHT22;10999;51.332;9.458;2023-08-21T12:35:01;28.60;44.50
21676;DHT22;10999;51.332;9.458;2023-08-21T12:37:28;28.70;44.10
21676;DHT22;10999;51.332;9.458;2023-08-21T12:39:55;28.60;41.10
21676;DHT22;10999;51.332;9.458;2023-08-21T12:42:21;28.50;39.40
21676;DHT22;10999;51.332;9.458;2023-08-21T12:44:48;28.40;40.30
21676;DHT22;10999;51.332;9.458;2023-08-21T12:47:15;28.30;42.20
21676;DHT22;10999;51.332;9.458;2023-08-21T12:49:42;28.30;41.30
21676;DHT22;10999;51.332;9.458;2023-08-21T12:52:09;28.30;44.40
21676;DHT22;10999;51.332;9.458;2023-08-21T12:54:39;28.30;42.90
21676;DHT22;10999;51.332;9.458;2023-08-21T12:57:06;28.30;44.70
21676;DHT22;10999;51.332;9.458;2023-08-21T12:59:34;28.50;42.40
21676;DHT22;10999;51.332;9.458;2023-08-21T13:02:01;28.50;42.70
21676;DHT22;10999;51.332;9.458;2023-08-21T13:04:28;28.40;43.60
21676;DHT22;10999;51.332;9.458;2023-08-21T13:06:55;28.50;41.50
21676;DHT22;10999;51.332;9.458;2023-08-21T13:09:22;28.70;43.80
21676;DHT22;10999;51.332;9.458;2023-08-21T13:11:51;29.00;46.30
21676;DHT22;10999;51.332;9.458;2023-08-21T13:14:18;29.20;44.50
21676;DHT22;10999;51.332;9.458;2023-08-21T13:16:45;29.30;44.30
21676;DHT22;10999;51.332;9.458;2023-08-21T13:19:12;29.50;42.40
21676;DHT22;10999;51.332;9.458;2023-08-21T13:21:39;29.70;41.10
21676;DHT22;10999;51.332;9.458;2023-08-21T13:24:06;29.80;40.20
21676;DHT22;10999;51.332;9.458;2023-08-21T13:26:32;29.70;38.10
21676;DHT22;10999;51.332;9.458;2023-08-21T13:28:59;29.50;38.00
21676;DHT22;10999;51.332;9.458;2023-08-21T13:31:26;29.20;38.40
21676;DHT22;10999;51.332;9.458;2023-08-21T13:33:55;28.90;41.00
21676;DHT22;10999;51.332;9.458;2023-08-21T13:36:22;28.80;42.20
21676;DHT22;10999;51.332;9.458;2023-08-21T13:38:51;28.70;43.30
21676;DHT22;10999;51.332;9.458;2023-08-21T13:41:18;28.90;44.20
21676;DHT22;10999;51.332;9.458;2023-08-21T13:43:45;28.90;41.50
21676;DHT22;10999;51.332;9.458;2023-08-21T13:46:12;28.80;39.40
21676;DHT22;10999;51.332;9.458;2023-08-21T13:48:39;28.70;40.10
21676;DHT22;10999;51.332;9.458;2023-08-21T13:51:06;28.60;40.30
21676;DHT22;10999;51.332;9.458;2023-08-21T13:53:32;28.30;42.20
21676;DHT22;10999;51.332;9.458;2023-08-21T13:55:59;28.20;40.20
21676;DHT22;10999;51.332;9.458;2023-08-21T13:58:26;28.00;44.80
21676;DHT22;10999;51.332;9.458;2023-08-21T14:00:53;27.80;45.50
21676;DHT22;10999;51.332;9.458;2023-08-21T14:03:20;27.70;46.20
21676;DHT22;10999;51.332;9.458;2023-08-21T14:05:47;27.60;46.40
21676;DHT22;10999;51.332;9.458;2023-08-21T14:08:13;27.50;46.60
21676;DHT22;10999;51.332;9.458;2023-08-21T14:10:40;27.40;48.20
21676;DHT22;10999;51.332;9.458;2023-08-21T14:13:07;27.30;49.40
21676;DHT22;10999;51.332;9.458;2023-08-21T14:15:34;27.20;51.00
21676;DHT22;10999;51.332;9.458;2023-08-21T14:18:01;27.40;50.50
21676;DHT22;10999;51.332;9.458;2023-08-21T14:20:29;27.70;50.30
21676;DHT22;10999;51.332;9.458;2023-08-21T14:22:56;27.80;45.50
21676;DHT22;10999;51.332;9.458;2023-08-21T14:25:24;27.90;47.00
21676;DHT22;10999;51.332;9.458;2023-08-21T14:27:51;27.80;45.60
21676;DHT22;10999;51.332;9.458;2023-08-21T14:30:18;27.80;45.50
21676;DHT22;10999;51.332;9.458;2023-08-21T14:32:45;27.80;46.20
21676;DHT22;10999;51.332;9.458;2023-08-21T14:35:12;28.00;47.70
21676;DHT22;10999;51.332;9.458;2023-08-21T14:37:39;28.20;47.50
21676;DHT22;10999;51.332;9.458;2023-08-21T14:40:06;28.40;44.60
21676;DHT22;10999;51.332;9.458;2023-08-21T14:42:37;28.50;46.00
21676;DHT22;10999;51.332;9.458;2023-08-21T14:45:05;28.60;42.50
21676;DHT22;10999;51.332;9.458;2023-08-21T14:47:41;28.60;42.80
21676;DHT22;10999;51.332;9.458;2023-08-21T14:50:20;28.40;41.20
21676;DHT22;10999;51.332;9.458;2023-08-21T14:53:00;28.30;42.60
21676;DHT22;10999;51.332;9.458;2023-08-21T14:55:27;28.40;45.40
21676;DHT22;10999;51.332;9.458;2023-08-21T14:57:54;28.50;44.60
21676;DHT22;10999;51.332;9.458;2023-08-21T15:00:20;28.70;45.30
21676;DHT22;10999;51.332;9.458;2023-08-21T15:02:47;28.80;42.90
21676;DHT22;10999;51.332;9.458;2023-08-21T15:05:14;29.00;43.20
21676;DHT22;10999;51.332;9.458;2023-08-21T15:07:43;29.00;44.00
21676;DHT22;10999;51.332;9.458;2023-08-21T15:10:10;29.10;39.10
21676;DHT22;10999;51.332;9.458;2023-08-21T15:12:37;29.10;41.40
21676;DHT22;10999;51.332;9.458;2023-08-21T15:15:05;29.20;43.40
21676;DHT22;10999;51.332;9.458;2023-08-21T15:17:32;29.20;40.90
21676;DHT22;10999;51.332;9.458;2023-08-21T15:19:59;29.20;37.70
21676;DHT22;10999;51.332;9.458;2023-08-21T15:22:26;29.20;39.30
21676;DHT22;10999;51.332;9.458;2023-08-21T15:24:52;29.30;42.30
21676;DHT22;10999;51.332;9.458;2023-08-21T15:27:31;29.30;40.60
21676;DHT22;10999;51.332;9.458;2023-08-21T15:29:58;29.40;39.80
21676;DHT22;10999;51.332;9.458;2023-08-21T15:32:25;29.40;41.20
21676;DHT22;10999;51.332;9.458;2023-08-21T15:34:52;29.50;41.10
21676;DHT22;10999;51.332;9.458;2023-08-21T15:37:18;29.50;39.50
21676;DHT22;10999;51.332;9.458;2023-08-21T15:39:45;29.50;38.70
21676;DHT22;10999;51.332;9.458;2023-08-21T15:42:12;29.50;37.80
21676;DHT22;10999;51.332;9.458;2023-08-21T15:44:39;29.40;37.70
21676;DHT22;10999;51.332;9.458;2023-08-21T15:47:06;29.40;37.30
21676;DHT22;10999;51.332;9.458;2023-08-21T15:49:52;29.40;36.60
21676;DHT22;10999;51.332;9.458;2023-08-21T15:52:19;29.40;38.10
21676;DHT22;10999;51.332;9.458;2023-08-21T15:54:46;29.40;38.80